Beattie, Kansas
Current Conditions -  °F | °C
As of 2:15 AM on Thursday 27 Nov 2014 (Local Time) from KMYZ Reporting Station
Clear Clear  
Wind Chill: 11°   Ceiling: Unl
Heat Index: 18°   Visibility: 10mi
Dew Point: 14°   Wind: 5mph
Humidity: 86%   Direction: 340°NNW
Pressure: 30.48"   Gusts: NA
Location:  39.86°N, 96.42°W
Report Text: KMYZ 270815Z AUTO 34004KT 10SM CLR M08/M10 A3048 RMK AO2
Loading
Personal Weather Stations






























Interactive Weather Map New forecast layout! Learn more

10-Day Weather Forecast

Advertisements
Track Severe Weather on mobile